UTSB

Details ICAO UTSB (BHK)
Name BUKHARA
Region Tajikistan, Turkmenistan and Uzbekistan
Timezone Asia/Samarkand (UTC+5.0)
Plans Departing 10
Arriving 24
Stats Elevation 751 ft / 229 m (AMSL)
Location 39.775000° 64.483334°
Runways 1
Magnetic Variation 5.272° E
Sunrise 2018-06-22 00:15:32 UTC / 2018-06-22 05:15:32 Local
Sunset 2018-06-22 15:14:57 UTC / 2018-06-22 20:14:57 Local
Advertisement - Login to hide

Runways

ID Width Length Bearing (true) Bearing (mag) Surface Threshold Offset Overrun Length
01 147 ft / 45 m 9,909 ft / 3,020 m 10.87° 5.60° Asphalt 0 ft / 0 m 177 ft / 54 m
19 147 ft / 45 m 9,909 ft / 3,020 m 190.88° 185.61° Asphalt 0 ft / 0 m 177 ft / 54 m

Approach Navaids

Runway Type Ident Frequency Range Bearing (true) Bearing (mag) Slope Elevation
01 Localiser IUH 110.30 MHz 18 nm / 33 km 10.88° 5.60° - 753 ft / 230 m (AMSL)
01 Glidescope IUH 110.30 MHz 10 nm / 19 km 10.88° 5.60° 3.00° 736 ft / 224 m (AMSL)

Map

Weather


0- 5 10 15 20 25 30 35+ Temperature / ° C

Clouds and Precipitation
Forecast for 2018-06-22 00:00 UTC. Updated 5 hours ago

Ground ~20,000 ft ~40,000 ft Winds

METAR

UTSB 220230Z 03006KT CAVOK 26/08 Q1008 R01/CLRD70 NOSIG

TAF

Not found

Frequencies

Tower 119.40 MHz TWR
Approach 124.60 MHz APP
Tower 120.10 MHz TWR
Warning: Do not use this data for real-world aviation or navigation. No guarantee of current accuracy is given.